createdAt,value
2023-05-10T00:02:14.641Z,1.30
2023-05-10T00:05:16.839Z,1.13
2023-05-10T00:08:18.972Z,1.60
2023-05-10T00:11:22.861Z,1.07
2023-05-10T00:14:25.132Z,0.70
2023-05-10T00:17:27.173Z,1.08
2023-05-10T00:20:29.329Z,1.10
2023-05-10T00:23:31.433Z,0.90
2023-05-10T00:26:33.345Z,0.97
2023-05-10T00:29:36.287Z,1.13
2023-05-10T00:32:38.586Z,1.30
2023-05-10T00:35:41.444Z,1.42
2023-05-10T00:38:44.967Z,1.40
2023-05-10T00:41:46.953Z,0.83
2023-05-10T00:44:49.113Z,1.15
2023-05-10T00:47:53.212Z,1.00
2023-05-10T00:50:55.319Z,1.55
2023-05-10T00:53:57.733Z,1.00
2023-05-10T00:57:00.364Z,1.47
2023-05-10T01:00:03.978Z,0.90
2023-05-10T01:03:06.062Z,1.23
2023-05-10T01:06:08.580Z,1.10
2023-05-10T01:09:12.727Z,1.42
2023-05-10T01:12:15.287Z,1.20
2023-05-10T01:15:18.459Z,1.30
2023-05-10T01:18:22.714Z,1.35
2023-05-10T01:21:42.953Z,1.60
2023-05-10T01:25:19.425Z,1.17
2023-05-10T01:28:43.030Z,1.80
2023-05-10T01:32:09.792Z,1.30
2023-05-10T01:35:13.965Z,2.05
2023-05-10T01:38:33.605Z,1.10
2023-05-10T01:41:56.813Z,0.93
2023-05-10T01:45:15.638Z,1.27
2023-05-10T01:48:20.477Z,1.38
2023-05-10T01:51:28.500Z,1.50
2023-05-10T01:54:32.212Z,1.25
2023-05-10T01:57:36.454Z,1.27
2023-05-10T02:00:43.706Z,1.30
2023-05-10T02:03:46.361Z,1.17
2023-05-10T02:06:49.507Z,1.45
2023-05-10T02:09:52.468Z,1.10
2023-05-10T02:12:55.286Z,1.48
2023-05-10T02:15:58.531Z,1.20
2023-05-10T02:19:03.126Z,1.38
2023-05-10T02:22:06.112Z,1.17
2023-05-10T02:25:10.243Z,1.63
2023-05-10T02:28:13.436Z,1.60
2023-05-10T02:31:16.488Z,1.70
2023-05-10T02:34:18.834Z,1.67
2023-05-10T02:37:22.822Z,1.55
2023-05-10T02:40:28.551Z,1.98
2023-05-10T02:43:34.412Z,1.85
2023-05-10T02:46:38.249Z,1.20
2023-05-10T02:49:40.706Z,1.33
2023-05-10T02:52:49.090Z,1.50
2023-05-10T02:55:53.780Z,1.40
2023-05-10T02:58:56.396Z,1.53
2023-05-10T03:01:58.403Z,1.20
2023-05-10T03:05:00.625Z,1.77
2023-05-10T03:08:05.236Z,1.90
2023-05-10T03:11:16.481Z,1.10
2023-05-10T03:14:40.480Z,1.30
2023-05-10T03:17:52.342Z,1.92
2023-05-10T03:21:00.282Z,1.45
2023-05-10T03:24:10.096Z,1.40
2023-05-10T03:27:13.879Z,1.50
2023-05-10T03:30:17.455Z,1.60
2023-05-10T03:33:19.827Z,1.33
2023-05-10T03:36:22.408Z,1.65
2023-05-10T03:39:25.818Z,2.13
2023-05-10T03:42:32.962Z,1.98
2023-05-10T03:45:34.994Z,1.37
2023-05-10T03:48:38.944Z,1.80
2023-05-10T03:51:41.325Z,1.58
2023-05-10T03:54:43.437Z,1.85
2023-05-10T03:57:45.493Z,1.77
2023-05-10T04:00:47.725Z,1.33
2023-05-10T04:03:50.561Z,1.80
2023-05-10T04:06:52.700Z,1.77
2023-05-10T04:09:55.114Z,1.50
2023-05-10T04:12:58.353Z,2.10
2023-05-10T04:16:00.494Z,1.70
2023-05-10T04:19:02.448Z,1.80
2023-05-10T04:22:04.550Z,1.75
2023-05-10T04:25:07.162Z,1.73
2023-05-10T04:28:09.746Z,1.90
2023-05-10T04:31:12.005Z,1.90
2023-05-10T04:34:13.986Z,1.92
2023-05-10T04:37:15.997Z,1.52
2023-05-10T04:40:18.304Z,1.48
2023-05-10T04:43:21.211Z,1.50
2023-05-10T04:46:23.328Z,1.70
2023-05-10T04:49:25.414Z,1.77
2023-05-10T04:52:27.430Z,1.88
2023-05-10T04:55:29.424Z,1.38
2023-05-10T04:58:31.654Z,1.80
2023-05-10T05:01:34.055Z,1.90
2023-05-10T05:04:36.046Z,2.17
2023-05-10T05:07:39.356Z,1.67
2023-05-10T05:10:41.441Z,1.33
2023-05-10T05:13:43.486Z,2.05
2023-05-10T05:16:45.489Z,2.05
2023-05-10T05:19:47.569Z,2.20
2023-05-10T05:22:49.608Z,1.38
2023-05-10T05:25:55.720Z,2.23
2023-05-10T05:28:57.988Z,1.63
2023-05-10T05:32:00.346Z,1.17
2023-05-10T05:35:02.372Z,2.50
2023-05-10T05:38:04.385Z,1.85
2023-05-10T05:41:06.461Z,2.43
2023-05-10T05:44:08.581Z,1.80
2023-05-10T05:47:10.722Z,1.55
2023-05-10T05:50:12.784Z,1.80
2023-05-10T05:53:14.803Z,1.80
2023-05-10T05:56:16.817Z,2.07
2023-05-10T05:59:18.781Z,1.67
2023-05-10T06:02:20.695Z,2.08
2023-05-10T06:05:22.739Z,2.25
2023-05-10T06:08:24.813Z,2.22
2023-05-10T06:11:27.068Z,1.70
2023-05-10T06:14:29.030Z,1.75
2023-05-10T06:17:31.204Z,1.95
2023-05-10T06:20:33.330Z,2.08
2023-05-10T06:23:35.364Z,2.50
2023-05-10T06:26:37.359Z,1.90
2023-05-10T06:29:39.345Z,2.15
2023-05-10T06:32:42.248Z,1.77
2023-05-10T06:35:44.248Z,2.03
2023-05-10T06:38:46.281Z,1.88
2023-05-10T06:41:48.320Z,1.53
2023-05-10T06:44:50.339Z,1.83
2023-05-10T06:47:52.304Z,2.08
2023-05-10T06:50:54.490Z,1.60
2023-05-10T06:54:16.419Z,1.75
2023-05-10T06:57:30.461Z,1.80
2023-05-10T07:00:33.067Z,1.67
2023-05-10T07:03:35.178Z,1.80
2023-05-10T07:06:37.217Z,1.90
2023-05-10T07:09:39.141Z,1.80
2023-05-10T07:12:41.197Z,2.00
2023-05-10T07:15:43.430Z,2.05
2023-05-10T07:18:45.616Z,1.92
2023-05-10T07:21:47.647Z,1.40
2023-05-10T07:24:49.771Z,1.95
2023-05-10T07:27:52.039Z,1.87
2023-05-10T07:30:54.130Z,1.80
2023-05-10T07:33:56.100Z,1.98
2023-05-10T07:36:59.463Z,2.10
2023-05-10T07:40:01.485Z,2.30
2023-05-10T07:43:03.785Z,1.57
2023-05-10T07:46:06.343Z,1.73
2023-05-10T07:49:08.357Z,1.80
2023-05-10T07:52:10.530Z,1.70
2023-05-10T07:55:12.638Z,1.60
2023-05-10T07:58:14.609Z,1.40
2023-05-10T08:01:16.552Z,1.77
2023-05-10T08:04:18.548Z,1.70
2023-05-10T08:07:20.604Z,1.88
2023-05-10T08:10:22.696Z,1.63
2023-05-10T08:13:24.629Z,2.40
2023-05-10T08:16:27.323Z,1.65
2023-05-10T08:19:29.469Z,1.92
2023-05-10T08:22:31.430Z,1.80
2023-05-10T08:25:33.448Z,1.77
2023-05-10T08:28:35.440Z,1.60
2023-05-10T08:31:37.389Z,1.85
2023-05-10T08:34:39.478Z,1.58
2023-05-10T08:37:41.617Z,1.75
2023-05-10T08:40:44.603Z,1.98
2023-05-10T08:43:47.307Z,2.80
2023-05-10T08:46:54.215Z,1.60
2023-05-10T08:49:58.113Z,1.63
2023-05-10T08:53:04.835Z,1.70
2023-05-10T08:56:07.359Z,1.33
2023-05-10T08:59:09.379Z,1.47
2023-05-10T09:02:13.462Z,1.70
2023-05-10T09:05:17.165Z,1.10
2023-05-10T09:08:19.796Z,1.50
2023-05-10T09:11:22.457Z,1.85
2023-05-10T09:14:25.962Z,1.30
2023-05-10T09:17:30.056Z,1.25
2023-05-10T09:20:32.213Z,1.27
2023-05-10T09:23:34.218Z,1.70
2023-05-10T09:26:46.428Z,1.35
2023-05-10T09:29:48.389Z,1.37
2023-05-10T09:32:51.446Z,1.25
2023-05-10T09:35:53.539Z,1.63
2023-05-10T09:38:55.759Z,1.25
2023-05-10T09:41:59.432Z,1.48
2023-05-10T09:45:06.316Z,1.20
2023-05-10T09:48:08.384Z,1.50
2023-05-10T09:51:10.575Z,1.40
2023-05-10T09:54:14.641Z,1.52
2023-05-10T09:57:22.866Z,1.13
2023-05-10T10:00:24.978Z,1.30
2023-05-10T10:03:28.882Z,1.10
2023-05-10T10:06:37.790Z,1.15
2023-05-10T10:09:40.089Z,1.15
2023-05-10T10:12:42.815Z,1.23
2023-05-10T10:15:52.108Z,1.10
2023-05-10T10:18:54.519Z,1.02
2023-05-10T10:21:56.658Z,1.15
2023-05-10T10:24:58.784Z,0.88
2023-05-10T10:28:28.450Z,1.00
2023-05-10T10:31:37.585Z,0.77
2023-05-10T10:34:40.736Z,0.80
2023-05-10T10:37:47.281Z,0.98
2023-05-10T10:40:49.521Z,1.00
2023-05-10T10:44:23.435Z,1.30
2023-05-10T10:47:25.977Z,1.10
2023-05-10T10:50:28.302Z,0.90
2023-05-10T10:53:30.576Z,0.80
2023-05-10T10:56:36.455Z,0.88
2023-05-10T10:59:44.248Z,1.15
2023-05-10T11:02:51.128Z,1.00
2023-05-10T11:05:59.538Z,1.00
2023-05-10T11:09:12.542Z,0.95
2023-05-10T11:12:14.535Z,1.13
2023-05-10T11:15:16.851Z,1.00
2023-05-10T11:18:20.038Z,1.00
2023-05-10T11:21:22.281Z,1.15
2023-05-10T11:24:28.457Z,1.27
2023-05-10T11:27:30.522Z,0.90
2023-05-10T11:30:32.750Z,1.10
2023-05-10T11:33:54.998Z,0.93
2023-05-10T11:36:58.391Z,0.85
2023-05-10T11:40:00.617Z,0.90
2023-05-10T11:43:03.687Z,0.75
2023-05-10T11:46:07.887Z,0.63
2023-05-10T11:49:10.034Z,0.70
2023-05-10T11:52:12.456Z,0.60
2023-05-10T11:55:14.489Z,0.63
2023-05-10T11:58:16.403Z,0.80
2023-05-10T12:01:18.555Z,0.80
2023-05-10T12:04:21.163Z,0.87
2023-05-10T12:07:23.508Z,0.63
2023-05-10T12:10:27.722Z,0.60
2023-05-10T12:13:29.924Z,0.60
2023-05-10T12:16:32.319Z,0.70
2023-05-10T12:19:44.789Z,0.73
2023-05-10T12:22:55.193Z,0.70
2023-05-10T12:26:03.311Z,0.93
2023-05-10T12:29:14.552Z,0.70
2023-05-10T12:32:16.610Z,0.98
2023-05-10T12:35:22.814Z,0.90
2023-05-10T12:38:39.280Z,0.85
2023-05-10T12:41:43.437Z,0.80
2023-05-10T12:44:45.652Z,0.60
2023-05-10T12:47:47.602Z,0.70
2023-05-10T12:50:49.686Z,0.60
2023-05-10T12:53:51.699Z,0.60
2023-05-10T12:56:53.766Z,0.82
2023-05-10T12:59:56.001Z,0.73
2023-05-10T13:02:58.114Z,0.90
2023-05-10T13:06:00.119Z,0.63
2023-05-10T13:09:02.093Z,0.70
2023-05-10T13:12:04.388Z,0.68
2023-05-10T13:15:07.720Z,0.85
2023-05-10T13:18:09.681Z,0.88
2023-05-10T13:21:12.273Z,0.70
2023-05-10T13:24:14.825Z,0.93
2023-05-10T13:27:16.753Z,0.82
2023-05-10T13:30:19.028Z,0.90
2023-05-10T13:33:21.120Z,0.80
2023-05-10T13:36:23.850Z,1.00
2023-05-10T13:39:25.736Z,0.90
2023-05-10T13:42:28.092Z,0.90
2023-05-10T13:45:30.066Z,0.80
2023-05-10T13:48:32.317Z,0.70
2023-05-10T13:51:35.460Z,0.63
2023-05-10T13:54:39.008Z,0.52
2023-05-10T13:57:41.036Z,0.52
2023-05-10T14:00:42.991Z,0.65
2023-05-10T14:03:45.061Z,0.70
2023-05-10T14:06:47.238Z,0.60
2023-05-10T14:09:49.268Z,0.50
2023-05-10T14:12:51.623Z,0.70
2023-05-10T14:15:54.840Z,0.75
2023-05-10T14:18:57.051Z,0.73
2023-05-10T14:21:59.157Z,0.77
2023-05-10T14:25:01.621Z,0.80
2023-05-10T14:28:03.825Z,0.88
2023-05-10T14:31:06.516Z,0.50
2023-05-10T14:34:08.464Z,0.70
2023-05-10T14:37:12.363Z,0.50
2023-05-10T14:40:16.110Z,0.40
2023-05-10T14:43:18.056Z,0.63
2023-05-10T14:46:20.180Z,0.63
2023-05-10T14:49:23.758Z,0.70
2023-05-10T14:52:25.957Z,0.53
2023-05-10T14:55:27.935Z,0.60
2023-05-10T14:58:30.522Z,0.73
2023-05-10T15:01:34.050Z,0.90
2023-05-10T15:04:36.731Z,0.60
2023-05-10T15:07:39.317Z,0.63
2023-05-10T15:10:41.463Z,0.60
2023-05-10T15:13:43.337Z,0.70
2023-05-10T15:16:45.404Z,0.90
2023-05-10T15:19:47.730Z,0.50
2023-05-10T15:22:49.719Z,0.90
2023-05-10T15:25:53.279Z,0.82
2023-05-10T15:28:55.313Z,0.80
2023-05-10T15:31:58.834Z,1.00
2023-05-10T15:35:00.812Z,1.00
2023-05-10T15:38:02.842Z,0.87
2023-05-10T15:41:05.124Z,0.85
2023-05-10T15:44:07.203Z,0.90
2023-05-10T15:47:09.198Z,0.60
2023-05-10T15:50:11.293Z,0.55
2023-05-10T15:53:13.339Z,0.90
2023-05-10T15:56:15.563Z,1.02
2023-05-10T15:59:17.521Z,0.95
2023-05-10T16:02:19.605Z,1.00
2023-05-10T16:05:22.200Z,0.85
2023-05-10T16:08:24.233Z,0.87
2023-05-10T16:11:26.224Z,0.80
2023-05-10T16:14:28.172Z,0.98
2023-05-10T16:17:30.218Z,0.82
2023-05-10T16:20:33.015Z,0.80
2023-05-10T16:23:35.001Z,0.70
2023-05-10T16:26:40.970Z,0.70
2023-05-10T16:29:43.140Z,0.80
2023-05-10T16:32:45.111Z,0.65
2023-05-10T16:35:47.183Z,0.80
2023-05-10T16:38:49.066Z,0.80
2023-05-10T16:41:51.100Z,1.13
2023-05-10T16:44:54.323Z,1.00
2023-05-10T16:47:57.059Z,0.98
2023-05-10T16:50:59.100Z,1.10
2023-05-10T16:54:01.449Z,1.10
2023-05-10T16:57:03.489Z,0.90
2023-05-10T17:00:06.176Z,0.80
2023-05-10T17:03:08.339Z,1.08
2023-05-10T17:06:10.964Z,0.93
2023-05-10T17:09:12.881Z,0.80
2023-05-10T17:12:15.318Z,0.80
2023-05-10T17:15:19.143Z,0.90
2023-05-10T17:18:22.166Z,0.85
2023-05-10T17:21:24.164Z,1.15
2023-05-10T17:24:29.546Z,0.97
2023-05-10T17:27:31.551Z,1.02
2023-05-10T17:30:33.975Z,1.00
2023-05-10T17:33:36.147Z,0.90
2023-05-10T17:36:38.159Z,0.80
2023-05-10T17:39:40.219Z,0.70
2023-05-10T17:42:42.712Z,1.10
2023-05-10T17:45:48.059Z,0.98
2023-05-10T17:48:50.999Z,0.90
2023-05-10T17:51:53.135Z,0.90
2023-05-10T17:54:55.193Z,1.20
2023-05-10T17:57:59.504Z,1.20
2023-05-10T18:01:01.513Z,1.08
2023-05-10T18:04:04.645Z,0.70
2023-05-10T18:07:07.956Z,1.25
2023-05-10T18:10:11.193Z,0.97
2023-05-10T18:13:13.296Z,1.05
2023-05-10T18:16:15.365Z,0.80
2023-05-10T18:19:17.571Z,0.90
2023-05-10T18:22:19.618Z,0.90
2023-05-10T18:25:21.814Z,0.70
2023-05-10T18:28:24.676Z,0.70
2023-05-10T18:31:27.161Z,0.55
2023-05-10T18:34:29.686Z,1.10
2023-05-10T18:37:32.229Z,1.05
2023-05-10T18:40:34.598Z,1.03
2023-05-10T18:43:36.922Z,0.82
2023-05-10T18:46:39.542Z,0.80
2023-05-10T18:49:42.030Z,0.88
2023-05-10T18:52:44.531Z,1.05
2023-05-10T18:55:46.984Z,0.83
2023-05-10T18:58:49.665Z,0.90
2023-05-10T19:01:53.151Z,1.00
2023-05-10T19:04:59.678Z,0.93
2023-05-10T19:08:02.172Z,0.90
2023-05-10T19:11:04.608Z,0.80
2023-05-10T19:14:07.059Z,0.95
2023-05-10T19:17:09.694Z,0.80
2023-05-10T19:20:12.289Z,0.77
2023-05-10T19:23:14.689Z,0.68
2023-05-10T19:26:17.145Z,1.13
2023-05-10T19:29:19.823Z,0.95
2023-05-10T19:32:24.604Z,0.80
2023-05-10T19:35:26.861Z,0.90
2023-05-10T19:38:29.396Z,0.73
2023-05-10T19:41:31.654Z,0.63
2023-05-10T19:44:34.021Z,0.88
2023-05-10T19:47:36.467Z,1.10
2023-05-10T19:50:38.837Z,1.05
2023-05-10T19:53:44.699Z,0.90
2023-05-10T19:56:47.074Z,0.87
2023-05-10T19:59:49.397Z,0.70
2023-05-10T20:02:51.822Z,1.13
2023-05-10T20:05:54.430Z,1.05
2023-05-10T20:08:56.768Z,0.88
2023-05-10T20:11:59.550Z,0.90
2023-05-10T20:15:01.649Z,0.70
2023-05-10T20:18:04.107Z,0.70
2023-05-10T20:21:07.052Z,1.13
2023-05-10T20:24:09.504Z,1.00
2023-05-10T20:27:11.752Z,0.80
2023-05-10T20:30:14.043Z,1.13
2023-05-10T20:33:16.812Z,0.82
2023-05-10T20:36:19.138Z,1.27
2023-05-10T20:39:22.733Z,1.08
2023-05-10T20:42:25.190Z,1.03
2023-05-10T20:45:27.585Z,1.20
2023-05-10T20:48:30.289Z,1.05
2023-05-10T20:51:33.347Z,1.00
2023-05-10T20:54:35.452Z,0.95
2023-05-10T20:57:37.412Z,1.20
2023-05-10T21:00:39.370Z,0.90
2023-05-10T21:03:41.386Z,1.20
2023-05-10T21:06:44.195Z,1.42
2023-05-10T21:09:46.190Z,0.85
2023-05-10T21:12:48.231Z,0.93
2023-05-10T21:15:50.271Z,0.93
2023-05-10T21:18:52.308Z,1.20
2023-05-10T21:21:56.170Z,1.05
2023-05-10T21:24:58.572Z,1.10
2023-05-10T21:28:00.535Z,1.10
2023-05-10T21:31:02.462Z,0.93
2023-05-10T21:34:04.428Z,1.45
2023-05-10T21:37:06.466Z,1.20
2023-05-10T21:40:08.993Z,1.15
2023-05-10T21:43:11.360Z,1.20
2023-05-10T21:46:14.344Z,1.15
2023-05-10T21:49:16.383Z,1.45
2023-05-10T21:52:18.333Z,1.23
2023-05-10T21:55:20.217Z,0.90
2023-05-10T21:58:22.740Z,1.17
2023-05-10T22:01:27.816Z,0.90
2023-05-10T22:04:30.032Z,0.95
2023-05-10T22:07:32.792Z,1.10
2023-05-10T22:10:34.847Z,0.90
2023-05-10T22:13:36.827Z,1.23
2023-05-10T22:16:38.831Z,0.95
2023-05-10T22:19:40.918Z,1.35
2023-05-10T22:22:42.861Z,1.20
2023-05-10T22:25:44.802Z,1.10
2023-05-10T22:28:46.715Z,0.80
2023-05-10T22:31:48.969Z,0.95
2023-05-10T22:34:51.103Z,1.27
2023-05-10T22:37:53.077Z,0.93
2023-05-10T22:40:55.073Z,1.42
2023-05-10T22:43:57.022Z,0.80
2023-05-10T22:46:59.025Z,0.82
2023-05-10T22:50:03.503Z,1.10
2023-05-10T22:53:06.673Z,1.42
2023-05-10T22:56:08.822Z,1.20
2023-05-10T22:59:11.060Z,0.80
2023-05-10T23:02:14.266Z,1.02
2023-05-10T23:05:16.368Z,1.00
2023-05-10T23:08:18.332Z,0.85
2023-05-10T23:11:21.865Z,1.08
2023-05-10T23:14:24.013Z,1.00
2023-05-10T23:17:26.171Z,1.20
2023-05-10T23:20:28.946Z,1.10
2023-05-10T23:23:32.739Z,1.38
2023-05-10T23:26:34.734Z,0.90
2023-05-10T23:29:36.647Z,0.97
2023-05-10T23:32:38.609Z,1.05
2023-05-10T23:35:40.669Z,1.10
2023-05-10T23:38:42.569Z,1.17
2023-05-10T23:41:44.661Z,0.80
2023-05-10T23:44:47.259Z,0.83
2023-05-10T23:47:49.381Z,1.23
2023-05-10T23:50:51.345Z,1.17
2023-05-10T23:53:53.303Z,1.17
2023-05-10T23:56:55.244Z,0.95
2023-05-10T23:59:57.127Z,1.37
